sensor_id;sensor_type;location;lat;lon;timestamp;pressure;altitude;pressure_sealevel;temperature;humidity
47883;BME280;37739;50.350;7.578;2023-04-24T00:00:59;98436.25;;;12.56;73.37
47883;BME280;37739;50.350;7.578;2023-04-24T00:03:29;98426.84;;;12.57;73.89
47883;BME280;37739;50.350;7.578;2023-04-24T00:06:00;98425.97;;;12.56;73.46
47883;BME280;37739;50.350;7.578;2023-04-24T00:08:26;98427.72;;;12.57;72.84
47883;BME280;37739;50.350;7.578;2023-04-24T00:10:51;98425.13;;;12.57;73.29
47883;BME280;37739;50.350;7.578;2023-04-24T00:13:17;98431.13;;;12.55;73.78
47883;BME280;37739;50.350;7.578;2023-04-24T00:15:46;98424.25;;;12.54;73.65
47883;BME280;37739;50.350;7.578;2023-04-24T00:18:16;98429.41;;;12.55;73.25
47883;BME280;37739;50.350;7.578;2023-04-24T00:20:41;98420.00;;;12.59;73.12
47883;BME280;37739;50.350;7.578;2023-04-24T00:23:09;98423.41;;;12.56;73.29
47883;BME280;37739;50.350;7.578;2023-04-24T00:25:39;98430.28;;;12.57;73.99
47883;BME280;37739;50.350;7.578;2023-04-24T00:28:09;98425.94;;;12.52;75.14
47883;BME280;37739;50.350;7.578;2023-04-24T00:30:35;98430.22;;;12.50;75.12
47883;BME280;37739;50.350;7.578;2023-04-24T00:33:03;98423.34;;;12.49;75.41
47883;BME280;37739;50.350;7.578;2023-04-24T00:35:30;98433.63;;;12.46;74.71
47883;BME280;37739;50.350;7.578;2023-04-24T00:37:58;98432.72;;;12.37;74.58
47883;BME280;37739;50.350;7.578;2023-04-24T00:40:26;98425.81;;;12.33;74.14
47883;BME280;37739;50.350;7.578;2023-04-24T00:42:52;98422.34;;;12.27;73.70
47883;BME280;37739;50.350;7.578;2023-04-24T00:45:19;98417.16;;;12.22;73.64
47883;BME280;37739;50.350;7.578;2023-04-24T00:47:45;98418.84;;;12.22;73.64
47883;BME280;37739;50.350;7.578;2023-04-24T00:50:14;98419.69;;;12.17;73.56
47883;BME280;37739;50.350;7.578;2023-04-24T00:52:40;98411.13;;;12.20;72.87
47883;BME280;37739;50.350;7.578;2023-04-24T00:55:08;98414.56;;;12.19;73.16
47883;BME280;37739;50.350;7.578;2023-04-24T00:57:35;98416.25;;;12.17;72.71
47883;BME280;37739;50.350;7.578;2023-04-24T01:00:06;98415.41;;;12.16;72.67
47883;BME280;37739;50.350;7.578;2023-04-24T01:02:40;98411.97;;;12.17;72.52
47883;BME280;37739;50.350;7.578;2023-04-24T01:05:08;98421.41;;;12.20;72.31
47883;BME280;37739;50.350;7.578;2023-04-24T01:07:36;98412.84;;;12.21;72.16
47883;BME280;37739;50.350;7.578;2023-04-24T01:10:03;98411.13;;;12.17;72.22
47883;BME280;37739;50.350;7.578;2023-04-24T01:12:28;98409.38;;;12.16;72.06
47883;BME280;37739;50.350;7.578;2023-04-24T01:14:56;98416.25;;;12.17;71.38
47883;BME280;37739;50.350;7.578;2023-04-24T01:17:22;98417.09;;;12.14;71.71
47883;BME280;37739;50.350;7.578;2023-04-24T01:19:49;98408.50;;;12.11;71.19
47883;BME280;37739;50.350;7.578;2023-04-24T01:22:18;98405.06;;;12.09;70.82
47883;BME280;37739;50.350;7.578;2023-04-24T01:24:48;98412.72;;;12.06;71.04
47883;BME280;37739;50.350;7.578;2023-04-24T01:27:14;98404.16;;;12.05;70.83
47883;BME280;37739;50.350;7.578;2023-04-24T01:29:40;98424.72;;;12.04;70.79
47883;BME280;37739;50.350;7.578;2023-04-24T01:32:05;98428.00;;;11.90;71.06
47883;BME280;37739;50.350;7.578;2023-04-24T01:34:33;98425.38;;;11.89;71.13
47883;BME280;37739;50.350;7.578;2023-04-24T01:36:58;98417.72;;;11.90;71.92
47883;BME280;37739;50.350;7.578;2023-04-24T01:39:26;98428.91;;;11.94;72.16
47883;BME280;37739;50.350;7.578;2023-04-24T01:41:54;98425.47;;;11.95;72.28
47883;BME280;37739;50.350;7.578;2023-04-24T01:44:20;98427.91;;;11.84;72.83
47883;BME280;37739;50.350;7.578;2023-04-24T01:46:45;98429.63;;;11.84;73.00
47883;BME280;37739;50.350;7.578;2023-04-24T01:49:11;98426.94;;;11.73;72.70
47883;BME280;37739;50.350;7.578;2023-04-24T01:51:36;98431.28;;;11.77;72.98
47883;BME280;37739;50.350;7.578;2023-04-24T01:54:04;98421.84;;;11.74;72.73
47883;BME280;37739;50.350;7.578;2023-04-24T01:56:35;98432.91;;;11.72;72.46
47883;BME280;37739;50.350;7.578;2023-04-24T01:59:06;98430.34;;;11.72;72.33
47883;BME280;37739;50.350;7.578;2023-04-24T02:01:36;98439.75;;;11.70;72.25
47883;BME280;37739;50.350;7.578;2023-04-24T02:04:01;98432.78;;;11.59;72.32
47883;BME280;37739;50.350;7.578;2023-04-24T02:06:27;98445.66;;;11.61;71.89
47883;BME280;37739;50.350;7.578;2023-04-24T02:08:52;98438.75;;;11.58;71.93
47883;BME280;37739;50.350;7.578;2023-04-24T02:11:18;98443.00;;;11.53;72.33
47883;BME280;37739;50.350;7.578;2023-04-24T02:13:43;98451.47;;;11.46;72.17
47883;BME280;37739;50.350;7.578;2023-04-24T02:16:09;98454.09;;;11.51;72.37
47883;BME280;37739;50.350;7.578;2023-04-24T02:18:34;98452.44;;;11.53;71.92
47883;BME280;37739;50.350;7.578;2023-04-24T02:21:00;98460.13;;;11.54;71.64
47883;BME280;37739;50.350;7.578;2023-04-24T02:23:32;98467.75;;;11.48;71.50
47883;BME280;37739;50.350;7.578;2023-04-24T02:26:02;98471.16;;;11.44;71.36
47883;BME280;37739;50.350;7.578;2023-04-24T02:28:30;98467.66;;;11.37;71.17
47883;BME280;37739;50.350;7.578;2023-04-24T02:31:00;98467.66;;;11.37;71.38
47883;BME280;37739;50.350;7.578;2023-04-24T02:33:28;98476.31;;;11.46;71.19
47883;BME280;37739;50.350;7.578;2023-04-24T02:35:55;98476.25;;;11.43;70.79
47883;BME280;37739;50.350;7.578;2023-04-24T02:38:23;98483.97;;;11.43;71.13
47883;BME280;37739;50.350;7.578;2023-04-24T02:40:48;98489.94;;;11.40;71.12
47883;BME280;37739;50.350;7.578;2023-04-24T02:43:18;98489.16;;;11.47;71.24
47883;BME280;37739;50.350;7.578;2023-04-24T02:45:44;98497.72;;;11.48;71.34
47883;BME280;37739;50.350;7.578;2023-04-24T02:48:14;98493.41;;;11.47;71.33
47883;BME280;37739;50.350;7.578;2023-04-24T02:50:39;98495.91;;;11.39;71.43
47883;BME280;37739;50.350;7.578;2023-04-24T02:53:06;98500.94;;;11.33;71.52
47883;BME280;37739;50.350;7.578;2023-04-24T02:55:32;98501.75;;;11.29;71.22
47883;BME280;37739;50.350;7.578;2023-04-24T02:58:00;98504.34;;;11.30;70.69
47883;BME280;37739;50.350;7.578;2023-04-24T03:00:25;98505.09;;;11.23;70.94
47883;BME280;37739;50.350;7.578;2023-04-24T03:02:51;98507.66;;;11.22;70.87
47883;BME280;37739;50.350;7.578;2023-04-24T03:05:16;98517.03;;;11.19;70.77
47883;BME280;37739;50.350;7.578;2023-04-24T03:07:41;98516.16;;;11.17;70.64
47883;BME280;37739;50.350;7.578;2023-04-24T03:10:07;98514.34;;;11.12;70.66
47883;BME280;37739;50.350;7.578;2023-04-24T03:12:35;98510.88;;;11.08;70.54
47883;BME280;37739;50.350;7.578;2023-04-24T03:15:03;98514.31;;;11.07;69.91
47883;BME280;37739;50.350;7.578;2023-04-24T03:17:30;98513.38;;;11.02;70.28
47883;BME280;37739;50.350;7.578;2023-04-24T03:19:58;98510.69;;;10.94;70.14
47883;BME280;37739;50.350;7.578;2023-04-24T03:22:25;98514.91;;;10.91;69.58
47883;BME280;37739;50.350;7.578;2023-04-24T03:24:51;98519.19;;;10.90;68.93
47883;BME280;37739;50.350;7.578;2023-04-24T03:27:16;98518.94;;;10.75;67.77
47883;BME280;37739;50.350;7.578;2023-04-24T03:29:42;98518.72;;;10.61;65.58
47883;BME280;37739;50.350;7.578;2023-04-24T03:32:07;98517.91;;;10.64;65.48
47883;BME280;37739;50.350;7.578;2023-04-24T03:34:32;98518.75;;;10.63;65.65
47883;BME280;37739;50.350;7.578;2023-04-24T03:37:00;98525.44;;;10.54;63.95
47883;BME280;37739;50.350;7.578;2023-04-24T03:39:28;98512.50;;;10.45;65.19
47883;BME280;37739;50.350;7.578;2023-04-24T03:41:58;98524.22;;;10.32;65.48
47883;BME280;37739;50.350;7.578;2023-04-24T03:44:26;98521.75;;;10.37;65.07
47883;BME280;37739;50.350;7.578;2023-04-24T03:46:54;98523.34;;;10.30;65.06
47883;BME280;37739;50.350;7.578;2023-04-24T03:49:19;98523.03;;;10.15;65.16
47883;BME280;37739;50.350;7.578;2023-04-24T03:51:47;98523.81;;;10.11;64.93
47883;BME280;37739;50.350;7.578;2023-04-24T03:54:15;98526.34;;;10.09;64.58
47883;BME280;37739;50.350;7.578;2023-04-24T03:56:45;98522.16;;;10.13;64.77
47883;BME280;37739;50.350;7.578;2023-04-24T03:59:11;98534.94;;;10.11;64.31
47883;BME280;37739;50.350;7.578;2023-04-24T04:01:39;98542.50;;;10.05;63.72
47883;BME280;37739;50.350;7.578;2023-04-24T04:04:05;98548.34;;;9.98;64.37
47883;BME280;37739;50.350;7.578;2023-04-24T04:06:33;98551.59;;;9.89;63.84
47883;BME280;37739;50.350;7.578;2023-04-24T04:08:58;98555.91;;;9.92;64.45
47883;BME280;37739;50.350;7.578;2023-04-24T04:11:26;98566.09;;;9.89;64.16
47883;BME280;37739;50.350;7.578;2023-04-24T04:13:51;98563.56;;;9.90;64.57
47883;BME280;37739;50.350;7.578;2023-04-24T04:16:19;98571.19;;;9.87;65.11
47883;BME280;37739;50.350;7.578;2023-04-24T04:18:49;98573.00;;;9.91;65.00
47883;BME280;37739;50.350;7.578;2023-04-24T04:21:17;98571.25;;;9.90;65.08
47883;BME280;37739;50.350;7.578;2023-04-24T04:23:45;98573.84;;;9.92;65.36
47883;BME280;37739;50.350;7.578;2023-04-24T04:26:11;98567.75;;;9.87;65.65
47883;BME280;37739;50.350;7.578;2023-04-24T04:28:41;98566.88;;;9.85;65.66
47883;BME280;37739;50.350;7.578;2023-04-24T04:31:07;98572.94;;;9.90;65.92
47883;BME280;37739;50.350;7.578;2023-04-24T04:33:33;98572.03;;;9.86;65.79
47883;BME280;37739;50.350;7.578;2023-04-24T04:36:01;98574.50;;;9.83;66.27
47883;BME280;37739;50.350;7.578;2023-04-24T04:38:28;98577.94;;;9.82;65.95
47883;BME280;37739;50.350;7.578;2023-04-24T04:40:57;98587.16;;;9.74;66.60
47883;BME280;37739;50.350;7.578;2023-04-24T04:43:25;98598.34;;;9.79;66.44
47883;BME280;37739;50.350;7.578;2023-04-24T04:45:57;98597.56;;;9.81;66.26
47883;BME280;37739;50.350;7.578;2023-04-24T04:48:25;98597.53;;;9.80;66.55
47883;BME280;37739;50.350;7.578;2023-04-24T04:50:52;98589.72;;;9.74;66.38
47883;BME280;37739;50.350;7.578;2023-04-24T04:53:18;98597.44;;;9.77;66.46
47883;BME280;37739;50.350;7.578;2023-04-24T04:55:46;98587.19;;;9.77;66.55
47883;BME280;37739;50.350;7.578;2023-04-24T04:58:14;98587.78;;;9.63;66.76
47883;BME280;37739;50.350;7.578;2023-04-24T05:00:44;98582.69;;;9.65;66.44
47883;BME280;37739;50.350;7.578;2023-04-24T05:03:09;98582.72;;;9.67;65.83
47883;BME280;37739;50.350;7.578;2023-04-24T05:05:35;98586.16;;;9.67;66.43
47883;BME280;37739;50.350;7.578;2023-04-24T05:08:00;98596.44;;;9.69;65.86
47883;BME280;37739;50.350;7.578;2023-04-24T05:10:25;98592.97;;;9.67;66.21
47883;BME280;37739;50.350;7.578;2023-04-24T05:12:51;98590.41;;;9.67;66.16
47883;BME280;37739;50.350;7.578;2023-04-24T05:15:16;98601.50;;;9.67;66.21
47883;BME280;37739;50.350;7.578;2023-04-24T05:17:44;98603.94;;;9.61;66.16
47883;BME280;37739;50.350;7.578;2023-04-24T05:20:09;98609.06;;;9.61;66.26
47883;BME280;37739;50.350;7.578;2023-04-24T05:22:37;98608.31;;;9.65;66.03
47883;BME280;37739;50.350;7.578;2023-04-24T05:25:05;98610.91;;;9.67;66.24
47883;BME280;37739;50.350;7.578;2023-04-24T05:27:33;98615.25;;;9.71;66.04
47883;BME280;37739;50.350;7.578;2023-04-24T05:29:58;98618.75;;;9.74;65.90
47883;BME280;37739;50.350;7.578;2023-04-24T05:32:24;98622.19;;;9.76;65.88
47883;BME280;37739;50.350;7.578;2023-04-24T05:34:49;98625.41;;;9.66;66.07
47883;BME280;37739;50.350;7.578;2023-04-24T05:37:17;98632.31;;;9.70;65.78
47883;BME280;37739;50.350;7.578;2023-04-24T05:39:42;98642.53;;;9.69;66.12
47883;BME280;37739;50.350;7.578;2023-04-24T05:42:08;98647.59;;;9.67;66.13
47883;BME280;37739;50.350;7.578;2023-04-24T05:44:35;98646.88;;;9.73;65.83
47883;BME280;37739;50.350;7.578;2023-04-24T05:47:01;98651.19;;;9.75;66.21
47883;BME280;37739;50.350;7.578;2023-04-24T05:49:27;98663.34;;;9.84;66.19
47883;BME280;37739;50.350;7.578;2023-04-24T05:51:52;98660.78;;;9.84;65.89
47883;BME280;37739;50.350;7.578;2023-04-24T05:54:19;98662.56;;;9.88;66.00
47883;BME280;37739;50.350;7.578;2023-04-24T05:56:45;98653.19;;;9.89;66.50
47883;BME280;37739;50.350;7.578;2023-04-24T05:59:11;98656.56;;;9.86;66.30
47883;BME280;37739;50.350;7.578;2023-04-24T06:01:36;98658.31;;;9.89;66.04
47883;BME280;37739;50.350;7.578;2023-04-24T06:04:04;98658.44;;;9.93;66.23
47883;BME280;37739;50.350;7.578;2023-04-24T06:06:29;98655.09;;;9.97;66.20
47883;BME280;37739;50.350;7.578;2023-04-24T06:08:57;98656.72;;;9.94;66.37
47883;BME280;37739;50.350;7.578;2023-04-24T06:11:23;98662.78;;;9.97;66.24
47883;BME280;37739;50.350;7.578;2023-04-24T06:13:49;98662.69;;;9.94;66.30
47883;BME280;37739;50.350;7.578;2023-04-24T06:16:15;98657.44;;;9.88;66.52
47883;BME280;37739;50.350;7.578;2023-04-24T06:18:43;98659.03;;;9.83;67.04
47883;BME280;37739;50.350;7.578;2023-04-24T06:21:11;98647.31;;;9.94;66.92
47883;BME280;37739;50.350;7.578;2023-04-24T06:23:38;98646.56;;;9.97;66.98
47883;BME280;37739;50.350;7.578;2023-04-24T06:26:04;98654.28;;;10.00;67.10
47883;BME280;37739;50.350;7.578;2023-04-24T06:28:32;98651.78;;;10.03;66.50
47883;BME280;37739;50.350;7.578;2023-04-24T06:30:57;98649.38;;;10.11;66.52
47883;BME280;37739;50.350;7.578;2023-04-24T06:33:23;98648.94;;;10.30;66.12
47883;BME280;37739;50.350;7.578;2023-04-24T06:35:53;98652.69;;;10.48;65.31
47883;BME280;37739;50.350;7.578;2023-04-24T06:38:20;98648.66;;;10.59;64.89
47883;BME280;37739;50.350;7.578;2023-04-24T06:40:48;98648.31;;;10.42;65.47
47883;BME280;37739;50.350;7.578;2023-04-24T06:43:14;98644.75;;;10.34;65.46
47883;BME280;37739;50.350;7.578;2023-04-24T06:45:41;98651.44;;;10.29;65.67
47883;BME280;37739;50.350;7.578;2023-04-24T06:48:10;98651.44;;;10.29;65.85
47883;BME280;37739;50.350;7.578;2023-04-24T06:50:38;98647.44;;;10.40;65.93
47883;BME280;37739;50.350;7.578;2023-04-24T06:53:05;98640.56;;;10.39;65.38
47883;BME280;37739;50.350;7.578;2023-04-24T06:55:31;98646.47;;;10.35;65.52
47883;BME280;37739;50.350;7.578;2023-04-24T06:57:56;98643.88;;;10.33;65.22
47883;BME280;37739;50.350;7.578;2023-04-24T07:00:22;98637.97;;;10.36;65.53
47883;BME280;37739;50.350;7.578;2023-04-24T07:02:49;98634.56;;;10.38;65.07
47883;BME280;37739;50.350;7.578;2023-04-24T07:05:18;98628.78;;;10.47;65.17
47883;BME280;37739;50.350;7.578;2023-04-24T07:07:50;98635.56;;;10.47;64.79
47883;BME280;37739;50.350;7.578;2023-04-24T07:10:20;98633.06;;;10.50;64.94
47883;BME280;37739;50.350;7.578;2023-04-24T07:12:50;98643.13;;;10.37;64.38
47883;BME280;37739;50.350;7.578;2023-04-24T07:15:16;98650.91;;;10.44;64.32
47883;BME280;37739;50.350;7.578;2023-04-24T07:17:46;98639.66;;;10.35;64.12
47883;BME280;37739;50.350;7.578;2023-04-24T07:20:11;98643.00;;;10.33;64.69
47883;BME280;37739;50.350;7.578;2023-04-24T07:22:42;98649.09;;;10.38;64.81
47883;BME280;37739;50.350;7.578;2023-04-24T07:25:08;98642.31;;;10.40;64.59
47883;BME280;37739;50.350;7.578;2023-04-24T07:27:34;98641.38;;;10.36;64.54
47883;BME280;37739;50.350;7.578;2023-04-24T07:29:59;98655.94;;;10.37;64.85
47883;BME280;37739;50.350;7.578;2023-04-24T07:32:28;98652.63;;;10.43;64.90
47883;BME280;37739;50.350;7.578;2023-04-24T07:34:55;98657.75;;;10.43;64.97
47883;BME280;37739;50.350;7.578;2023-04-24T07:37:24;98657.91;;;10.51;64.67
47883;BME280;37739;50.350;7.578;2023-04-24T07:39:49;98662.28;;;10.58;64.78
47883;BME280;37739;50.350;7.578;2023-04-24T07:42:20;98660.78;;;10.69;64.78
47883;BME280;37739;50.350;7.578;2023-04-24T07:44:45;98661.81;;;10.79;64.66
47883;BME280;37739;50.350;7.578;2023-04-24T07:47:15;98658.56;;;10.89;64.41
47883;BME280;37739;50.350;7.578;2023-04-24T07:49:43;98656.91;;;10.93;64.44
47883;BME280;37739;50.350;7.578;2023-04-24T07:52:08;98657.88;;;10.98;64.76
47883;BME280;37739;50.350;7.578;2023-04-24T07:54:34;98658.22;;;11.19;64.38
47883;BME280;37739;50.350;7.578;2023-04-24T07:56:59;98658.22;;;11.19;63.98
47883;BME280;37739;50.350;7.578;2023-04-24T07:59:26;98663.34;;;11.19;64.06
47883;BME280;37739;50.350;7.578;2023-04-24T08:01:51;98673.69;;;11.23;64.13
47883;BME280;37739;50.350;7.578;2023-04-24T08:04:16;98667.47;;;11.10;64.24
47883;BME280;37739;50.350;7.578;2023-04-24T08:06:43;98683.59;;;11.01;64.36
47883;BME280;37739;50.350;7.578;2023-04-24T08:09:08;98687.03;;;11.02;64.54
47883;BME280;37739;50.350;7.578;2023-04-24T08:11:34;98683.50;;;10.96;64.33
47883;BME280;37739;50.350;7.578;2023-04-24T08:14:04;98694.84;;;11.09;64.41
47883;BME280;37739;50.350;7.578;2023-04-24T08:16:32;98697.59;;;11.18;64.25
47883;BME280;37739;50.350;7.578;2023-04-24T08:18:58;98698.56;;;11.27;64.60
47883;BME280;37739;50.350;7.578;2023-04-24T08:21:25;98708.78;;;11.22;64.59
47883;BME280;37739;50.350;7.578;2023-04-24T08:23:53;98701.72;;;11.12;64.89
47883;BME280;37739;50.350;7.578;2023-04-24T08:26:21;98710.94;;;11.00;65.40
47883;BME280;37739;50.350;7.578;2023-04-24T08:28:48;98715.16;;;10.95;65.18
47883;BME280;37739;50.350;7.578;2023-04-24T08:31:14;98729.66;;;10.93;65.56
47883;BME280;37739;50.350;7.578;2023-04-24T08:33:42;98734.78;;;10.95;65.82
47883;BME280;37739;50.350;7.578;2023-04-24T08:36:10;98721.69;;;10.79;65.92
47883;BME280;37739;50.350;7.578;2023-04-24T08:38:37;98737.81;;;10.72;66.25
47883;BME280;37739;50.350;7.578;2023-04-24T08:41:06;98735.19;;;10.69;66.18
47883;BME280;37739;50.350;7.578;2023-04-24T08:43:35;98734.47;;;10.76;66.38
47883;BME280;37739;50.350;7.578;2023-04-24T08:46:03;98739.66;;;10.81;66.76
47883;BME280;37739;50.350;7.578;2023-04-24T08:48:29;98739.63;;;10.79;67.20
47883;BME280;37739;50.350;7.578;2023-04-24T08:50:58;98744.69;;;10.75;67.11
47883;BME280;37739;50.350;7.578;2023-04-24T08:53:25;98748.38;;;10.89;67.19
47883;BME280;37739;50.350;7.578;2023-04-24T08:55:55;98761.38;;;10.98;67.08
47883;BME280;37739;50.350;7.578;2023-04-24T08:58:22;98756.34;;;11.03;67.46
47883;BME280;37739;50.350;7.578;2023-04-24T09:00:49;98762.13;;;10.93;67.63
47883;BME280;37739;50.350;7.578;2023-04-24T09:03:21;98761.38;;;10.98;68.13
47883;BME280;37739;50.350;7.578;2023-04-24T09:05:47;98771.59;;;10.97;69.19
47883;BME280;37739;50.350;7.578;2023-04-24T09:08:17;98766.47;;;10.97;69.29
47883;BME280;37739;50.350;7.578;2023-04-24T09:10:43;98767.38;;;10.97;69.42
47883;BME280;37739;50.350;7.578;2023-04-24T09:13:11;98763.97;;;11.00;69.11
47883;BME280;37739;50.350;7.578;2023-04-24T09:15:37;98763.91;;;10.97;68.60
47883;BME280;37739;50.350;7.578;2023-04-24T09:18:05;98770.81;;;10.99;68.39
47883;BME280;37739;50.350;7.578;2023-04-24T09:20:31;98769.16;;;11.02;68.18
47883;BME280;37739;50.350;7.578;2023-04-24T09:22:57;98777.59;;;10.96;69.16
47883;BME280;37739;50.350;7.578;2023-04-24T09:25:31;98781.06;;;10.98;70.76
47883;BME280;37739;50.350;7.578;2023-04-24T09:28:03;98793.00;;;10.96;71.22
47883;BME280;37739;50.350;7.578;2023-04-24T09:30:28;98780.22;;;10.99;71.58
47883;BME280;37739;50.350;7.578;2023-04-24T09:33:10;98799.00;;;10.98;72.30
47883;BME280;37739;50.350;7.578;2023-04-24T09:35:48;98795.56;;;10.96;72.25
47883;BME280;37739;50.350;7.578;2023-04-24T09:38:13;98810.97;;;10.96;74.06
47883;BME280;37739;50.350;7.578;2023-04-24T09:40:41;98810.25;;;11.03;73.07
47883;BME280;37739;50.350;7.578;2023-04-24T09:43:12;98812.63;;;10.94;73.52
47883;BME280;37739;50.350;7.578;2023-04-24T09:45:40;98815.34;;;11.02;73.74
47883;BME280;37739;50.350;7.578;2023-04-24T09:48:09;98827.28;;;10.99;73.95
47883;BME280;37739;50.350;7.578;2023-04-24T09:50:35;98835.75;;;10.97;74.57
47883;BME280;37739;50.350;7.578;2023-04-24T09:53:05;98828.22;;;11.03;75.20
47883;BME280;37739;50.350;7.578;2023-04-24T09:55:39;98834.50;;;11.19;75.38
47883;BME280;37739;50.350;7.578;2023-04-24T09:58:07;98838.03;;;11.24;75.72
47883;BME280;37739;50.350;7.578;2023-04-24T10:00:38;98841.44;;;11.25;75.06
47883;BME280;37739;50.350;7.578;2023-04-24T10:03:05;98841.56;;;11.31;75.31
47883;BME280;37739;50.350;7.578;2023-04-24T10:05:35;98836.59;;;11.40;74.76
47883;BME280;37739;50.350;7.578;2023-04-24T10:08:08;98837.53;;;11.44;74.38
47883;BME280;37739;50.350;7.578;2023-04-24T10:10:39;98842.66;;;11.44;73.81
47883;BME280;37739;50.350;7.578;2023-04-24T10:13:08;98841.91;;;11.51;73.57
47883;BME280;37739;50.350;7.578;2023-04-24T10:15:35;98840.09;;;11.44;70.80
47883;BME280;37739;50.350;7.578;2023-04-24T10:18:04;98844.84;;;11.22;71.74
47883;BME280;37739;50.350;7.578;2023-04-24T10:20:34;98843.25;;;11.29;69.19
47883;BME280;37739;50.350;7.578;2023-04-24T10:23:02;98849.34;;;11.34;69.13
47883;BME280;37739;50.350;7.578;2023-04-24T10:25:32;98851.91;;;11.35;68.45
47883;BME280;37739;50.350;7.578;2023-04-24T10:27:59;98844.28;;;11.38;67.55
47883;BME280;37739;50.350;7.578;2023-04-24T10:30:26;98858.84;;;11.39;66.68
47883;BME280;37739;50.350;7.578;2023-04-24T10:32:53;98862.38;;;11.46;67.33
47883;BME280;37739;50.350;7.578;2023-04-24T10:35:19;98855.53;;;11.47;66.04
47883;BME280;37739;50.350;7.578;2023-04-24T10:38:08;98863.16;;;11.42;64.18
47883;BME280;37739;50.350;7.578;2023-04-24T10:40:35;98872.53;;;11.38;65.90
47883;BME280;37739;50.350;7.578;2023-04-24T10:43:07;98868.25;;;11.37;64.54
47883;BME280;37739;50.350;7.578;2023-04-24T10:45:35;98872.44;;;11.35;65.23
47883;BME280;37739;50.350;7.578;2023-04-24T10:48:05;98876.69;;;11.32;64.46
47883;BME280;37739;50.350;7.578;2023-04-24T10:51:02;98884.56;;;11.43;64.58
47883;BME280;37739;50.350;7.578;2023-04-24T10:53:30;98882.00;;;11.43;64.92
47883;BME280;37739;50.350;7.578;2023-04-24T10:56:04;98886.34;;;11.47;65.00
47883;BME280;37739;50.350;7.578;2023-04-24T10:58:41;98899.94;;;11.41;64.51
47883;BME280;37739;50.350;7.578;2023-04-24T11:01:26;98893.06;;;11.38;64.37
47883;BME280;37739;50.350;7.578;2023-04-24T11:03:57;98900.75;;;11.38;64.59
47883;BME280;37739;50.350;7.578;2023-04-24T11:06:49;98899.94;;;11.41;64.32
47883;BME280;37739;50.350;7.578;2023-04-24T11:09:22;98900.13;;;11.50;64.21
47883;BME280;37739;50.350;7.578;2023-04-24T11:12:03;98907.78;;;11.47;63.96
47883;BME280;37739;50.350;7.578;2023-04-24T11:17:34;98917.19;;;11.47;63.16
47883;BME280;37739;50.350;7.578;2023-04-24T11:20:16;98924.06;;;11.48;63.81
47883;BME280;37739;50.350;7.578;2023-04-24T11:22:42;98922.34;;;11.48;63.46
47883;BME280;37739;50.350;7.578;2023-04-24T11:25:08;98933.59;;;11.53;63.35
47883;BME280;37739;50.350;7.578;2023-04-24T11:27:41;98933.34;;;11.41;62.96
47883;BME280;37739;50.350;7.578;2023-04-24T11:30:08;98946.94;;;11.37;62.81
47883;BME280;37739;50.350;7.578;2023-04-24T11:35:14;98959.50;;;11.23;65.55
47883;BME280;37739;50.350;7.578;2023-04-24T11:37:52;98959.06;;;11.02;67.13
47883;BME280;37739;50.350;7.578;2023-04-24T11:40:21;98957.91;;;10.89;69.82
47883;BME280;37739;50.350;7.578;2023-04-24T11:42:53;98967.56;;;10.99;68.58
47883;BME280;37739;50.350;7.578;2023-04-24T11:45:24;98963.38;;;11.04;68.06
47883;BME280;37739;50.350;7.578;2023-04-24T11:47:53;98966.03;;;11.07;67.16
47883;BME280;37739;50.350;7.578;2023-04-24T11:50:26;98956.53;;;11.05;67.33
47883;BME280;37739;50.350;7.578;2023-04-24T11:52:57;98971.16;;;11.07;66.84
47883;BME280;37739;50.350;7.578;2023-04-24T11:57:53;98968.22;;;10.90;67.15
47883;BME280;37739;50.350;7.578;2023-04-24T12:00:26;98979.31;;;10.89;66.75
47883;BME280;37739;50.350;7.578;2023-04-24T12:03:08;98974.69;;;11.12;67.51
47883;BME280;37739;50.350;7.578;2023-04-24T12:05:36;98977.53;;;11.25;66.13
47883;BME280;37739;50.350;7.578;2023-04-24T12:08:02;98984.41;;;11.68;67.22
47883;BME280;37739;50.350;7.578;2023-04-24T12:10:29;98973.66;;;12.36;66.51
47883;BME280;37739;50.350;7.578;2023-04-24T12:12:56;98990.84;;;12.41;65.34
47883;BME280;37739;50.350;7.578;2023-04-24T12:15:23;98987.72;;;12.08;64.06
47883;BME280;37739;50.350;7.578;2023-04-24T12:17:51;98989.41;;;11.61;64.68
47883;BME280;37739;50.350;7.578;2023-04-24T12:20:16;98990.25;;;11.61;65.32
47883;BME280;37739;50.350;7.578;2023-04-24T12:22:47;98992.84;;;11.63;65.08
47883;BME280;37739;50.350;7.578;2023-04-24T12:25:17;98998.28;;;11.78;65.22
47883;BME280;37739;50.350;7.578;2023-04-24T12:27:46;98988.16;;;11.86;63.08
47883;BME280;37739;50.350;7.578;2023-04-24T12:30:16;98990.16;;;11.99;63.24
47883;BME280;37739;50.350;7.578;2023-04-24T12:32:46;98991.84;;;11.98;62.48
47883;BME280;37739;50.350;7.578;2023-04-24T12:35:19;98999.56;;;11.98;62.82
47883;BME280;37739;50.350;7.578;2023-04-24T12:37:50;98994.31;;;11.92;63.00
47883;BME280;37739;50.350;7.578;2023-04-24T12:40:17;98991.69;;;11.91;62.17
47883;BME280;37739;50.350;7.578;2023-04-24T12:42:44;98993.72;;;12.07;62.43
47883;BME280;37739;50.350;7.578;2023-04-24T12:45:15;99000.22;;;12.37;61.85
47883;BME280;37739;50.350;7.578;2023-04-24T12:47:45;98986.66;;;12.46;59.73
47883;BME280;37739;50.350;7.578;2023-04-24T12:50:14;98991.88;;;12.50;60.54
47883;BME280;37739;50.350;7.578;2023-04-24T12:52:41;98988.09;;;12.83;59.27
47883;BME280;37739;50.350;7.578;2023-04-24T12:55:07;98986.38;;;13.42;58.74
47883;BME280;37739;50.350;7.578;2023-04-24T12:57:39;98976.97;;;13.48;58.44
47883;BME280;37739;50.350;7.578;2023-04-24T13:00:06;98977.03;;;13.51;57.86
47883;BME280;37739;50.350;7.578;2023-04-24T13:02:33;98976.88;;;13.41;58.13
47883;BME280;37739;50.350;7.578;2023-04-24T13:05:01;98968.09;;;13.26;58.38
47883;BME280;37739;50.350;7.578;2023-04-24T13:07:29;98965.91;;;12.90;57.13
47883;BME280;37739;50.350;7.578;2023-04-24T13:09:55;98981.75;;;12.60;58.38
47883;BME280;37739;50.350;7.578;2023-04-24T13:12:25;98970.25;;;12.37;58.34
47883;BME280;37739;50.350;7.578;2023-04-24T13:14:54;98973.59;;;12.32;57.99